sensor_id;sensor_type;location;lat;lon;timestamp;P1;durP1;ratioP1;P2;durP2;ratioP2
8359;SDS011;4217;48.762;11.428;2022-08-19T00:05:25;18.97;;;17.77;;
8359;SDS011;4217;48.762;11.428;2022-08-19T00:15:27;19.60;;;18.30;;
8359;SDS011;4217;48.762;11.428;2022-08-19T00:25:28;19.73;;;18.53;;
8359;SDS011;4217;48.762;11.428;2022-08-19T00:35:31;19.67;;;18.57;;
8359;SDS011;4217;48.762;11.428;2022-08-19T00:45:33;19.20;;;18.10;;
8359;SDS011;4217;48.762;11.428;2022-08-19T00:55:36;20.23;;;18.90;;
8359;SDS011;4217;48.762;11.428;2022-08-19T01:05:42;23.33;;;21.83;;
8359;SDS011;4217;48.762;11.428;2022-08-19T01:15:46;25.63;;;24.03;;
8359;SDS011;4217;48.762;11.428;2022-08-19T01:25:52;22.77;;;21.37;;
8359;SDS011;4217;48.762;11.428;2022-08-19T01:36:03;28.17;;;26.40;;
8359;SDS011;4217;48.762;11.428;2022-08-19T01:46:13;24.50;;;22.87;;
8359;SDS011;4217;48.762;11.428;2022-08-19T01:56:15;24.83;;;23.23;;
8359;SDS011;4217;48.762;11.428;2022-08-19T02:06:17;24.00;;;22.40;;
8359;SDS011;4217;48.762;11.428;2022-08-19T02:16:19;23.33;;;21.83;;
8359;SDS011;4217;48.762;11.428;2022-08-19T02:26:21;26.50;;;24.80;;
8359;SDS011;4217;48.762;11.428;2022-08-19T02:36:23;26.07;;;24.40;;
8359;SDS011;4217;48.762;11.428;2022-08-19T02:46:27;29.50;;;27.60;;
8359;SDS011;4217;48.762;11.428;2022-08-19T02:56:30;28.40;;;26.50;;
8359;SDS011;4217;48.762;11.428;2022-08-19T03:06:35;28.43;;;26.63;;
8359;SDS011;4217;48.762;11.428;2022-08-19T03:16:43;28.30;;;26.47;;
8359;SDS011;4217;48.762;11.428;2022-08-19T03:26:54;28.93;;;26.97;;
8359;SDS011;4217;48.762;11.428;2022-08-19T03:37:03;30.20;;;28.20;;
8359;SDS011;4217;48.762;11.428;2022-08-19T03:47:10;28.17;;;26.27;;
8359;SDS011;4217;48.762;11.428;2022-08-19T03:57:15;30.60;;;28.50;;
8359;SDS011;4217;48.762;11.428;2022-08-19T04:07:17;29.33;;;27.43;;
8359;SDS011;4217;48.762;11.428;2022-08-19T04:17:22;27.47;;;25.67;;
8359;SDS011;4217;48.762;11.428;2022-08-19T04:27:23;29.63;;;27.63;;
8359;SDS011;4217;48.762;11.428;2022-08-19T04:37:26;25.40;;;23.70;;
8359;SDS011;4217;48.762;11.428;2022-08-19T04:47:36;25.90;;;24.10;;
8359;SDS011;4217;48.762;11.428;2022-08-19T04:57:58;30.37;;;28.27;;
8359;SDS011;4217;48.762;11.428;2022-08-19T05:08:00;30.60;;;28.50;;
8359;SDS011;4217;48.762;11.428;2022-08-19T05:18:01;29.03;;;27.00;;
8359;SDS011;4217;48.762;11.428;2022-08-19T05:28:22;29.50;;;27.40;;
8359;SDS011;4217;48.762;11.428;2022-08-19T05:38:23;21.63;;;20.17;;
8359;SDS011;4217;48.762;11.428;2022-08-19T05:48:28;29.63;;;27.53;;
8359;SDS011;4217;48.762;11.428;2022-08-19T05:58:30;30.67;;;28.37;;
8359;SDS011;4217;48.762;11.428;2022-08-19T06:08:33;26.13;;;24.43;;
8359;SDS011;4217;48.762;11.428;2022-08-19T06:18:37;24.67;;;22.97;;
8359;SDS011;4217;48.762;11.428;2022-08-19T06:28:38;24.03;;;22.43;;
8359;SDS011;4217;48.762;11.428;2022-08-19T06:38:44;23.37;;;21.70;;
8359;SDS011;4217;48.762;11.428;2022-08-19T06:48:47;24.77;;;23.17;;
8359;SDS011;4217;48.762;11.428;2022-08-19T06:58:49;21.80;;;20.40;;
8359;SDS011;4217;48.762;11.428;2022-08-19T07:08:53;25.17;;;23.47;;
8359;SDS011;4217;48.762;11.428;2022-08-19T07:18:56;23.67;;;22.27;;
8359;SDS011;4217;48.762;11.428;2022-08-19T07:28:59;23.97;;;22.37;;
8359;SDS011;4217;48.762;11.428;2022-08-19T07:39:07;26.63;;;24.83;;
8359;SDS011;4217;48.762;11.428;2022-08-19T07:49:11;24.77;;;22.97;;
8359;SDS011;4217;48.762;11.428;2022-08-19T07:59:19;22.93;;;21.33;;
8359;SDS011;4217;48.762;11.428;2022-08-19T08:09:30;24.53;;;23.00;;
8359;SDS011;4217;48.762;11.428;2022-08-19T08:19:39;23.63;;;22.03;;
8359;SDS011;4217;48.762;11.428;2022-08-19T08:29:44;23.33;;;21.83;;
8359;SDS011;4217;48.762;11.428;2022-08-19T08:39:46;22.77;;;21.23;;
8359;SDS011;4217;48.762;11.428;2022-08-19T08:49:56;17.13;;;16.03;;
8359;SDS011;4217;48.762;11.428;2022-08-19T09:00:07;17.97;;;16.67;;
8359;SDS011;4217;48.762;11.428;2022-08-19T09:20:26;14.43;;;13.60;;
8359;SDS011;4217;48.762;11.428;2022-08-19T09:30:29;14.67;;;13.80;;
8359;SDS011;4217;48.762;11.428;2022-08-19T09:40:32;16.10;;;15.10;;
8359;SDS011;4217;48.762;11.428;2022-08-19T09:50:38;18.93;;;17.63;;
8359;SDS011;4217;48.762;11.428;2022-08-19T10:00:52;20.67;;;19.17;;
8359;SDS011;4217;48.762;11.428;2022-08-19T10:10:58;17.97;;;16.77;;
8359;SDS011;4217;48.762;11.428;2022-08-19T10:21:21;19.67;;;18.27;;
8359;SDS011;4217;48.762;11.428;2022-08-19T10:31:27;18.47;;;17.33;;
8359;SDS011;4217;48.762;11.428;2022-08-19T10:41:50;19.33;;;18.13;;
8359;SDS011;4217;48.762;11.428;2022-08-19T10:51:52;19.90;;;18.50;;
8359;SDS011;4217;48.762;11.428;2022-08-19T11:02:20;15.40;;;14.50;;
8359;SDS011;4217;48.762;11.428;2022-08-19T11:12:21;17.07;;;15.97;;
8359;SDS011;4217;48.762;11.428;2022-08-19T11:22:23;19.73;;;18.40;;
8359;SDS011;4217;48.762;11.428;2022-08-19T11:32:36;20.67;;;18.87;;
8359;SDS011;4217;48.762;11.428;2022-08-19T11:42:38;19.43;;;18.13;;
8359;SDS011;4217;48.762;11.428;2022-08-19T11:52:58;20.83;;;19.10;;
8359;SDS011;4217;48.762;11.428;2022-08-19T12:02:59;16.20;;;15.20;;
8359;SDS011;4217;48.762;11.428;2022-08-19T12:13:01;17.70;;;16.60;;
8359;SDS011;4217;48.762;11.428;2022-08-19T12:23:03;16.23;;;15.23;;
8359;SDS011;4217;48.762;11.428;2022-08-19T12:33:05;16.43;;;15.33;;
8359;SDS011;4217;48.762;11.428;2022-08-19T12:43:07;17.03;;;15.90;;
8359;SDS011;4217;48.762;11.428;2022-08-19T12:53:09;16.13;;;15.10;;
8359;SDS011;4217;48.762;11.428;2022-08-19T13:03:10;17.90;;;16.80;;
8359;SDS011;4217;48.762;11.428;2022-08-19T13:13:12;15.23;;;14.23;;
8359;SDS011;4217;48.762;11.428;2022-08-19T13:23:13;16.13;;;15.13;;
8359;SDS011;4217;48.762;11.428;2022-08-19T13:33:15;16.23;;;15.13;;
8359;SDS011;4217;48.762;11.428;2022-08-19T13:43:17;17.23;;;16.13;;
8359;SDS011;4217;48.762;11.428;2022-08-19T13:53:23;18.23;;;17.10;;
8359;SDS011;4217;48.762;11.428;2022-08-19T14:03:26;18.13;;;16.83;;
8359;SDS011;4217;48.762;11.428;2022-08-19T14:13:28;16.37;;;15.27;;
8359;SDS011;4217;48.762;11.428;2022-08-19T14:23:30;16.83;;;15.80;;
8359;SDS011;4217;48.762;11.428;2022-08-19T14:33:32;19.23;;;17.93;;
8359;SDS011;4217;48.762;11.428;2022-08-19T14:43:34;21.00;;;19.63;;
8359;SDS011;4217;48.762;11.428;2022-08-19T14:53:36;22.23;;;20.63;;
8359;SDS011;4217;48.762;11.428;2022-08-19T15:03:38;21.90;;;20.30;;
8359;SDS011;4217;48.762;11.428;2022-08-19T15:13:42;21.40;;;19.80;;
8359;SDS011;4217;48.762;11.428;2022-08-19T15:23:45;21.53;;;20.03;;
8359;SDS011;4217;48.762;11.428;2022-08-19T15:33:51;19.53;;;18.20;;
8359;SDS011;4217;48.762;11.428;2022-08-19T15:43:59;20.43;;;19.03;;
8359;SDS011;4217;48.762;11.428;2022-08-19T15:54:10;16.67;;;15.47;;
8359;SDS011;4217;48.762;11.428;2022-08-19T16:04:13;14.73;;;13.93;;
8359;SDS011;4217;48.762;11.428;2022-08-19T16:14:34;14.07;;;13.23;;
8359;SDS011;4217;48.762;11.428;2022-08-19T16:24:38;11.10;;;10.37;;
8359;SDS011;4217;48.762;11.428;2022-08-19T16:34:40;8.87;;;8.33;;
8359;SDS011;4217;48.762;11.428;2022-08-19T16:44:43;7.70;;;7.20;;
8359;SDS011;4217;48.762;11.428;2022-08-19T16:54:46;4.10;;;3.90;;
8359;SDS011;4217;48.762;11.428;2022-08-19T17:04:48;3.47;;;3.27;;
8359;SDS011;4217;48.762;11.428;2022-08-19T17:14:59;2.50;;;2.30;;
8359;SDS011;4217;48.762;11.428;2022-08-19T17:25:03;3.07;;;2.87;;
8359;SDS011;4217;48.762;11.428;2022-08-19T17:35:06;3.77;;;3.57;;
8359;SDS011;4217;48.762;11.428;2022-08-19T17:45:08;4.87;;;4.57;;
8359;SDS011;4217;48.762;11.428;2022-08-19T17:55:11;7.97;;;7.37;;
8359;SDS011;4217;48.762;11.428;2022-08-19T18:05:13;9.90;;;9.30;;
8359;SDS011;4217;48.762;11.428;2022-08-19T18:15:14;8.40;;;7.90;;
8359;SDS011;4217;48.762;11.428;2022-08-19T18:25:24;7.17;;;6.77;;
8359;SDS011;4217;48.762;11.428;2022-08-19T18:35:28;6.37;;;6.00;;
8359;SDS011;4217;48.762;11.428;2022-08-19T18:45:31;5.33;;;5.03;;
8359;SDS011;4217;48.762;11.428;2022-08-19T18:55:51;4.90;;;4.60;;
8359;SDS011;4217;48.762;11.428;2022-08-19T19:05:55;5.60;;;5.30;;
8359;SDS011;4217;48.762;11.428;2022-08-19T19:15:56;5.30;;;5.00;;
8359;SDS011;4217;48.762;11.428;2022-08-19T19:25:57;5.47;;;5.17;;
8359;SDS011;4217;48.762;11.428;2022-08-19T19:36:00;5.00;;;4.70;;
8359;SDS011;4217;48.762;11.428;2022-08-19T19:46:02;4.87;;;4.57;;
8359;SDS011;4217;48.762;11.428;2022-08-19T19:56:07;4.93;;;4.63;;
8359;SDS011;4217;48.762;11.428;2022-08-19T20:06:11;4.07;;;3.87;;
8359;SDS011;4217;48.762;11.428;2022-08-19T20:16:13;12.90;;;12.40;;
8359;SDS011;4217;48.762;11.428;2022-08-19T20:26:15;11.50;;;11.07;;
8359;SDS011;4217;48.762;11.428;2022-08-19T20:36:32;10.40;;;10.00;;
8359;SDS011;4217;48.762;11.428;2022-08-19T20:46:34;9.53;;;9.13;;
8359;SDS011;4217;48.762;11.428;2022-08-19T20:56:37;11.67;;;11.17;;
8359;SDS011;4217;48.762;11.428;2022-08-19T21:06:39;11.30;;;10.90;;
8359;SDS011;4217;48.762;11.428;2022-08-19T21:16:45;17.00;;;16.40;;
8359;SDS011;4217;48.762;11.428;2022-08-19T21:26:47;17.37;;;16.77;;
8359;SDS011;4217;48.762;11.428;2022-08-19T21:36:52;17.43;;;16.73;;
8359;SDS011;4217;48.762;11.428;2022-08-19T21:46:54;16.80;;;16.10;;
8359;SDS011;4217;48.762;11.428;2022-08-19T21:56:56;17.93;;;17.23;;
8359;SDS011;4217;48.762;11.428;2022-08-19T22:06:58;14.43;;;13.83;;
8359;SDS011;4217;48.762;11.428;2022-08-19T22:16:59;20.50;;;19.60;;
8359;SDS011;4217;48.762;11.428;2022-08-19T22:27:01;19.00;;;18.10;;
8359;SDS011;4217;48.762;11.428;2022-08-19T22:37:08;21.33;;;20.33;;
8359;SDS011;4217;48.762;11.428;2022-08-19T22:47:10;22.53;;;21.33;;
8359;SDS011;4217;48.762;11.428;2022-08-19T22:57:12;20.07;;;19.10;;
8359;SDS011;4217;48.762;11.428;2022-08-19T23:07:15;18.87;;;18.07;;
8359;SDS011;4217;48.762;11.428;2022-08-19T23:17:17;19.63;;;18.73;;
8359;SDS011;4217;48.762;11.428;2022-08-19T23:27:20;20.83;;;19.93;;
8359;SDS011;4217;48.762;11.428;2022-08-19T23:37:40;18.80;;;18.00;;
8359;SDS011;4217;48.762;11.428;2022-08-19T23:47:42;22.93;;;21.93;;
8359;SDS011;4217;48.762;11.428;2022-08-19T23:57:45;22.50;;;21.50;;
